createdAt,value
2023-02-08T00:00:46.739Z,85.53
2023-02-08T00:05:50.013Z,86.03
2023-02-08T00:10:53.067Z,85.79
2023-02-08T00:15:56.423Z,86.28
2023-02-08T00:20:59.504Z,86.19
2023-02-08T00:26:02.411Z,86.33
2023-02-08T00:31:06.794Z,86.34
2023-02-08T00:36:12.036Z,86.46
2023-02-08T00:41:15.073Z,85.97
2023-02-08T00:46:17.952Z,85.52
2023-02-08T00:51:20.872Z,84.91
2023-02-08T00:56:23.931Z,84.37
2023-02-08T01:01:26.943Z,84.13
2023-02-08T01:06:29.914Z,83.73
2023-02-08T01:11:33.114Z,83.09
2023-02-08T01:16:36.172Z,82.60
2023-02-08T01:21:42.149Z,81.94
2023-02-08T01:26:45.189Z,81.34
2023-02-08T01:31:48.200Z,80.60
2023-02-08T01:36:51.166Z,80.38
2023-02-08T01:41:54.687Z,80.12
2023-02-08T01:46:58.279Z,79.96
2023-02-08T01:52:14.663Z,79.79
2023-02-08T01:57:18.450Z,79.62
2023-02-08T02:02:23.502Z,79.26
2023-02-08T02:07:30.041Z,79.17
2023-02-08T02:12:34.148Z,79.05
2023-02-08T02:17:39.246Z,78.44
2023-02-08T02:23:07.501Z,78.37
2023-02-08T02:28:47.274Z,78.23
2023-02-08T02:34:15.186Z,78.28
2023-02-08T02:39:35.907Z,78.24
2023-02-08T02:45:13.246Z,77.90
2023-02-08T02:50:25.153Z,78.11
2023-02-08T02:55:31.171Z,77.87
2023-02-08T03:00:34.848Z,77.95
2023-02-08T03:05:38.059Z,77.83
2023-02-08T03:11:14.890Z,77.86
2023-02-08T03:17:20.319Z,77.88
2023-02-08T03:22:47.970Z,77.23
2023-02-08T03:28:05.820Z,77.28
2023-02-08T03:33:19.664Z,77.17
2023-02-08T03:38:33.221Z,77.11
2023-02-08T03:43:48.171Z,77.22
2023-02-08T03:49:05.306Z,77.12
2023-02-08T03:54:18.216Z,77.10
2023-02-08T03:59:30.784Z,76.67
2023-02-08T04:04:44.270Z,76.69
2023-02-08T04:09:47.462Z,75.80
2023-02-08T04:14:50.431Z,75.71
2023-02-08T04:19:53.541Z,75.25
2023-02-08T04:24:56.670Z,75.42
2023-02-08T04:30:00.170Z,75.26
2023-02-08T04:35:03.440Z,74.91
2023-02-08T04:40:06.817Z,74.51
2023-02-08T04:45:10.290Z,74.55
2023-02-08T04:50:13.088Z,74.26
2023-02-08T04:55:16.086Z,74.24
2023-02-08T05:00:19.212Z,73.34
2023-02-08T05:05:22.217Z,73.64
2023-02-08T05:10:25.830Z,73.27
2023-02-08T05:15:28.837Z,72.95
2023-02-08T05:20:33.744Z,73.15
2023-02-08T05:25:39.643Z,73.58
2023-02-08T05:30:43.186Z,74.10
2023-02-08T05:35:46.380Z,74.14
2023-02-08T05:40:49.678Z,74.33
2023-02-08T05:45:53.055Z,74.49
2023-02-08T05:50:56.925Z,74.68
2023-02-08T05:55:59.874Z,74.65
2023-02-08T06:01:12.922Z,74.83
2023-02-08T06:06:15.855Z,75.30
2023-02-08T06:11:19.638Z,75.68
2023-02-08T06:16:22.385Z,76.47
2023-02-08T06:21:25.298Z,76.71
2023-02-08T06:26:28.369Z,77.23
2023-02-08T06:31:31.496Z,77.94
2023-02-08T06:36:34.517Z,78.49
2023-02-08T06:41:37.678Z,78.92
2023-02-08T06:46:40.575Z,79.34
2023-02-08T06:51:43.780Z,79.55
2023-02-08T06:56:46.553Z,79.61
2023-02-08T07:01:49.825Z,79.72
2023-02-08T07:06:52.800Z,79.89
2023-02-08T07:11:55.820Z,79.51
2023-02-08T07:16:58.843Z,78.58
2023-02-08T07:22:08.343Z,77.72
2023-02-08T07:27:13.405Z,78.75
2023-02-08T07:32:19.414Z,76.41
2023-02-08T07:37:22.500Z,71.73
2023-02-08T07:42:25.448Z,65.54
2023-02-08T07:47:28.375Z,63.69
2023-02-08T07:52:31.897Z,58.16
2023-02-08T07:57:35.408Z,58.39
2023-02-08T08:02:38.480Z,58.35
2023-02-08T08:07:41.467Z,55.74
2023-02-08T08:12:44.473Z,54.75
2023-02-08T08:17:47.458Z,56.52
2023-02-08T08:22:51.005Z,53.15
2023-02-08T08:27:54.967Z,51.33
2023-02-08T08:32:57.870Z,53.09
2023-02-08T08:38:00.803Z,52.26
2023-02-08T08:43:03.841Z,50.09
2023-02-08T08:48:07.112Z,50.50
2023-02-08T08:53:10.288Z,49.99
2023-02-08T08:58:13.669Z,49.02
2023-02-08T09:03:16.734Z,49.49
2023-02-08T09:08:19.818Z,48.74
2023-02-08T09:13:22.757Z,49.63
2023-02-08T09:18:25.700Z,49.30
2023-02-08T09:23:28.430Z,49.90
2023-02-08T09:28:31.766Z,48.12
2023-02-08T09:33:34.757Z,47.37
2023-02-08T09:38:39.192Z,47.64
2023-02-08T09:44:10.268Z,47.58
2023-02-08T09:49:23.916Z,47.34
2023-02-08T09:54:42.765Z,48.01
2023-02-08T10:00:04.864Z,48.96
2023-02-08T10:05:15.089Z,48.63
2023-02-08T10:10:27.372Z,49.75
2023-02-08T10:15:48.096Z,50.18
2023-02-08T10:20:59.756Z,49.79
2023-02-08T10:26:35.332Z,47.77
2023-02-08T10:32:26.929Z,46.57
2023-02-08T10:37:35.848Z,45.39
2023-02-08T10:42:40.280Z,44.22
2023-02-08T10:47:53.920Z,45.80
2023-02-08T10:52:57.286Z,44.45
2023-02-08T10:58:04.423Z,45.04
2023-02-08T11:03:34.264Z,44.71
2023-02-08T11:08:56.351Z,43.54
2023-02-08T11:14:21.048Z,43.56
2023-02-08T11:19:46.406Z,44.65
2023-02-08T11:25:34.948Z,44.74
2023-02-08T11:30:38.858Z,45.15
2023-02-08T11:35:42.466Z,44.70
2023-02-08T11:40:46.386Z,43.76
2023-02-08T11:45:49.963Z,42.62
2023-02-08T11:50:57.870Z,42.80
2023-02-08T11:56:19.332Z,43.79
2023-02-08T12:01:25.618Z,45.50
2023-02-08T12:07:04.319Z,46.48
2023-02-08T12:12:35.895Z,47.96
2023-02-08T12:18:19.258Z,47.54
2023-02-08T12:23:41.396Z,47.45
2023-02-08T12:29:15.232Z,47.92
2023-02-08T12:34:41.684Z,48.71
2023-02-08T12:40:31.112Z,48.47
2023-02-08T12:46:10.195Z,47.48
2023-02-08T12:51:34.919Z,47.79
2023-02-08T12:56:53.655Z,47.95
2023-02-08T13:02:04.573Z,46.77
2023-02-08T13:07:38.504Z,47.52
2023-02-08T13:12:53.309Z,48.35
2023-02-08T13:18:00.121Z,49.05
2023-02-08T13:23:52.924Z,49.27
2023-02-08T13:29:04.683Z,48.44
2023-02-08T13:34:18.194Z,49.28
2023-02-08T13:39:48.589Z,50.16
2023-02-08T13:44:56.641Z,51.16
2023-02-08T13:50:07.434Z,51.35
2023-02-08T13:55:30.593Z,52.12
2023-02-08T14:00:37.249Z,52.12
2023-02-08T14:06:02.441Z,52.46
2023-02-08T14:11:49.611Z,52.69
2023-02-08T14:17:04.412Z,52.20
2023-02-08T14:22:13.290Z,51.99
2023-02-08T14:27:49.872Z,51.54
2023-02-08T14:33:12.568Z,51.34
2023-02-08T14:38:24.742Z,51.53
2023-02-08T14:43:43.530Z,51.50
2023-02-08T14:48:49.811Z,51.35
2023-02-08T14:53:55.234Z,51.55
2023-02-08T14:59:16.722Z,51.46
2023-02-08T15:04:20.734Z,52.12
2023-02-08T15:09:35.659Z,51.88
2023-02-08T15:14:41.504Z,52.27
2023-02-08T15:19:47.255Z,53.11
2023-02-08T15:24:59.153Z,53.00
2023-02-08T15:30:02.471Z,53.50
2023-02-08T15:35:05.694Z,53.84
2023-02-08T15:40:22.918Z,54.00
2023-02-08T15:45:31.522Z,54.63
2023-02-08T15:50:35.770Z,54.86
2023-02-08T15:55:50.205Z,55.05
2023-02-08T16:00:53.855Z,55.77
2023-02-08T16:06:04.071Z,56.29
2023-02-08T16:11:14.058Z,56.99
2023-02-08T16:16:26.960Z,57.75
2023-02-08T16:21:38.359Z,58.44
2023-02-08T16:27:06.514Z,59.50
2023-02-08T16:32:38.897Z,60.86
2023-02-08T16:37:42.497Z,62.01
2023-02-08T16:42:46.331Z,62.81
2023-02-08T16:48:00.171Z,63.25
2023-02-08T16:53:12.595Z,64.02
2023-02-08T16:58:16.951Z,64.67
2023-02-08T17:03:20.013Z,65.48
2023-02-08T17:08:23.160Z,66.36
2023-02-08T17:13:29.348Z,66.99
2023-02-08T17:18:34.798Z,67.33
2023-02-08T17:23:38.492Z,67.75
2023-02-08T17:28:41.648Z,68.27
2023-02-08T17:33:45.100Z,68.76
2023-02-08T17:38:48.089Z,68.94
2023-02-08T17:43:53.692Z,69.24
2023-02-08T17:49:00.662Z,69.73
2023-02-08T17:54:05.554Z,70.19
2023-02-08T17:59:08.876Z,70.62
2023-02-08T18:04:13.443Z,70.79
2023-02-08T18:09:16.606Z,71.20
2023-02-08T18:14:20.414Z,71.50
2023-02-08T18:19:23.726Z,71.92
2023-02-08T18:24:28.023Z,72.33
2023-02-08T18:29:31.006Z,72.42
2023-02-08T18:34:34.550Z,72.78
2023-02-08T18:39:38.264Z,72.93
2023-02-08T18:44:41.368Z,73.12
2023-02-08T18:49:44.591Z,72.87
2023-02-08T18:54:47.579Z,73.54
2023-02-08T18:59:50.728Z,73.98
2023-02-08T19:04:53.911Z,74.30
2023-02-08T19:09:57.004Z,74.48
2023-02-08T19:14:59.939Z,74.85
2023-02-08T19:20:03.304Z,75.09
2023-02-08T19:25:07.073Z,75.19
2023-02-08T19:30:10.900Z,75.56
2023-02-08T19:35:14.588Z,75.75
2023-02-08T19:40:19.590Z,76.10
2023-02-08T19:45:22.595Z,76.53
2023-02-08T19:50:25.720Z,76.59
2023-02-08T19:55:28.780Z,77.01
2023-02-08T20:00:31.827Z,77.10
2023-02-08T20:05:36.345Z,77.59
2023-02-08T20:10:41.598Z,77.39
2023-02-08T20:15:45.436Z,78.25
2023-02-08T20:21:01.172Z,78.78
2023-02-08T20:26:13.016Z,78.58
2023-02-08T20:31:20.804Z,79.18
2023-02-08T20:36:28.012Z,79.98
2023-02-08T20:41:33.108Z,79.65
2023-02-08T20:46:36.187Z,79.99
2023-02-08T20:51:39.299Z,80.08
2023-02-08T20:56:42.343Z,79.96
2023-02-08T21:01:46.600Z,80.48
2023-02-08T21:06:50.894Z,80.16
2023-02-08T21:11:53.992Z,80.26
2023-02-08T21:16:58.887Z,80.54
2023-02-08T21:22:02.978Z,81.18
2023-02-08T21:27:06.755Z,81.17
2023-02-08T21:32:09.794Z,81.71
2023-02-08T21:37:12.818Z,81.66
2023-02-08T21:42:15.769Z,81.86
2023-02-08T21:47:18.686Z,81.79
2023-02-08T21:52:40.359Z,82.37
2023-02-08T21:57:43.340Z,82.58
2023-02-08T22:02:46.170Z,82.84
2023-02-08T22:07:56.847Z,83.04
2023-02-08T22:13:00.198Z,83.27
2023-02-08T22:18:04.264Z,83.63
2023-02-08T22:23:07.275Z,83.58
2023-02-08T22:28:10.389Z,83.69
2023-02-08T22:33:13.339Z,84.02
2023-02-08T22:38:16.255Z,84.57
2023-02-08T22:43:19.116Z,84.45
2023-02-08T22:48:21.932Z,84.07
2023-02-08T22:53:24.915Z,84.67
2023-02-08T22:58:28.226Z,84.80
2023-02-08T23:03:31.791Z,85.10
2023-02-08T23:08:35.907Z,85.13
2023-02-08T23:13:38.824Z,85.47
2023-02-08T23:18:42.388Z,85.47
2023-02-08T23:23:48.006Z,85.72
2023-02-08T23:28:53.908Z,85.89
2023-02-08T23:34:00.579Z,86.34
2023-02-08T23:39:04.472Z,86.24
2023-02-08T23:44:07.438Z,86.36
2023-02-08T23:49:10.329Z,86.18
2023-02-08T23:54:13.372Z,86.61
2023-02-08T23:59:16.452Z,86.53
